sensor_id;sensor_type;location;lat;lon;timestamp;temperature;humidity
8988;DHT22;4529;51.360;12.474;2022-08-19T00:04:00;21.20;99.90
8988;DHT22;4529;51.360;12.474;2022-08-19T00:09:03;21.20;99.90
8988;DHT22;4529;51.360;12.474;2022-08-19T00:14:07;21.20;99.90
8988;DHT22;4529;51.360;12.474;2022-08-19T00:19:09;21.20;99.90
8988;DHT22;4529;51.360;12.474;2022-08-19T00:24:13;21.20;99.90
8988;DHT22;4529;51.360;12.474;2022-08-19T00:29:18;21.10;99.90
8988;DHT22;4529;51.360;12.474;2022-08-19T00:34:21;21.20;99.90
8988;DHT22;4529;51.360;12.474;2022-08-19T00:39:25;21.20;99.90
8988;DHT22;4529;51.360;12.474;2022-08-19T00:44:29;21.10;99.90
8988;DHT22;4529;51.360;12.474;2022-08-19T00:49:40;21.20;99.90
8988;DHT22;4529;51.360;12.474;2022-08-19T00:54:45;21.10;99.90
8988;DHT22;4529;51.360;12.474;2022-08-19T00:59:50;21.10;99.90
8988;DHT22;4529;51.360;12.474;2022-08-19T01:04:53;21.10;99.90
8988;DHT22;4529;51.360;12.474;2022-08-19T01:09:57;21.10;99.90
8988;DHT22;4529;51.360;12.474;2022-08-19T01:15:02;21.10;99.90
8988;DHT22;4529;51.360;12.474;2022-08-19T01:20:05;21.00;99.90
8988;DHT22;4529;51.360;12.474;2022-08-19T01:25:08;21.00;99.90
8988;DHT22;4529;51.360;12.474;2022-08-19T01:30:13;21.00;99.90
8988;DHT22;4529;51.360;12.474;2022-08-19T01:35:17;21.00;99.90
8988;DHT22;4529;51.360;12.474;2022-08-19T01:40:21;21.10;99.90
8988;DHT22;4529;51.360;12.474;2022-08-19T01:45:25;21.10;99.90
8988;DHT22;4529;51.360;12.474;2022-08-19T01:50:28;21.00;99.90
8988;DHT22;4529;51.360;12.474;2022-08-19T01:55:31;21.10;99.90
8988;DHT22;4529;51.360;12.474;2022-08-19T02:00:34;21.10;99.90
8988;DHT22;4529;51.360;12.474;2022-08-19T02:05:38;21.10;99.90
8988;DHT22;4529;51.360;12.474;2022-08-19T02:10:42;21.00;99.90
8988;DHT22;4529;51.360;12.474;2022-08-19T02:15:45;21.10;99.90
8988;DHT22;4529;51.360;12.474;2022-08-19T02:20:48;21.00;99.90
8988;DHT22;4529;51.360;12.474;2022-08-19T02:25:52;21.00;99.90
8988;DHT22;4529;51.360;12.474;2022-08-19T02:30:58;21.00;99.90
8988;DHT22;4529;51.360;12.474;2022-08-19T02:36:05;21.00;99.90
8988;DHT22;4529;51.360;12.474;2022-08-19T02:41:18;21.00;99.90
8988;DHT22;4529;51.360;12.474;2022-08-19T02:46:19;21.00;99.90
8988;DHT22;4529;51.360;12.474;2022-08-19T02:51:23;21.10;99.90
8988;DHT22;4529;51.360;12.474;2022-08-19T02:56:25;21.10;99.90
8988;DHT22;4529;51.360;12.474;2022-08-19T03:01:29;21.10;99.90
8988;DHT22;4529;51.360;12.474;2022-08-19T03:06:34;21.00;99.90
8988;DHT22;4529;51.360;12.474;2022-08-19T03:11:36;21.00;99.90
8988;DHT22;4529;51.360;12.474;2022-08-19T03:16:44;21.00;99.90
8988;DHT22;4529;51.360;12.474;2022-08-19T03:21:46;21.00;99.90
8988;DHT22;4529;51.360;12.474;2022-08-19T03:26:51;20.90;99.90
8988;DHT22;4529;51.360;12.474;2022-08-19T03:31:54;20.90;99.90
8988;DHT22;4529;51.360;12.474;2022-08-19T03:36:59;20.90;99.90
8988;DHT22;4529;51.360;12.474;2022-08-19T03:42:02;20.90;99.90
8988;DHT22;4529;51.360;12.474;2022-08-19T03:47:06;20.90;99.90
8988;DHT22;4529;51.360;12.474;2022-08-19T03:52:10;20.90;99.90
8988;DHT22;4529;51.360;12.474;2022-08-19T03:57:14;20.80;99.90
8988;DHT22;4529;51.360;12.474;2022-08-19T04:02:20;20.80;99.90
8988;DHT22;4529;51.360;12.474;2022-08-19T04:07:23;20.80;99.90
8988;DHT22;4529;51.360;12.474;2022-08-19T04:12:27;20.80;99.90
8988;DHT22;4529;51.360;12.474;2022-08-19T04:17:30;20.80;99.90
8988;DHT22;4529;51.360;12.474;2022-08-19T04:22:34;20.80;99.90
8988;DHT22;4529;51.360;12.474;2022-08-19T04:27:37;20.80;99.90
8988;DHT22;4529;51.360;12.474;2022-08-19T04:32:42;20.80;99.90
8988;DHT22;4529;51.360;12.474;2022-08-19T04:37:45;20.80;99.90
8988;DHT22;4529;51.360;12.474;2022-08-19T04:42:50;20.90;99.90
8988;DHT22;4529;51.360;12.474;2022-08-19T04:47:54;20.80;99.90
8988;DHT22;4529;51.360;12.474;2022-08-19T04:52:57;20.90;99.90
8988;DHT22;4529;51.360;12.474;2022-08-19T04:58:00;20.90;99.90
8988;DHT22;4529;51.360;12.474;2022-08-19T05:03:04;20.90;99.90
8988;DHT22;4529;51.360;12.474;2022-08-19T05:08:07;20.90;99.90
8988;DHT22;4529;51.360;12.474;2022-08-19T05:13:11;21.00;99.90
8988;DHT22;4529;51.360;12.474;2022-08-19T05:18:14;20.90;99.90
8988;DHT22;4529;51.360;12.474;2022-08-19T05:23:18;21.00;99.90
8988;DHT22;4529;51.360;12.474;2022-08-19T05:28:22;21.00;99.90
8988;DHT22;4529;51.360;12.474;2022-08-19T05:33:26;21.00;99.90
8988;DHT22;4529;51.360;12.474;2022-08-19T05:38:30;21.00;99.90
8988;DHT22;4529;51.360;12.474;2022-08-19T05:43:33;20.90;99.90
8988;DHT22;4529;51.360;12.474;2022-08-19T05:48:37;21.10;99.90
8988;DHT22;4529;51.360;12.474;2022-08-19T05:53:41;21.10;99.90
8988;DHT22;4529;51.360;12.474;2022-08-19T05:58:44;21.10;99.90
8988;DHT22;4529;51.360;12.474;2022-08-19T06:03:47;21.20;99.90
8988;DHT22;4529;51.360;12.474;2022-08-19T06:08:51;21.20;99.90
8988;DHT22;4529;51.360;12.474;2022-08-19T06:13:54;21.10;99.90
8988;DHT22;4529;51.360;12.474;2022-08-19T06:18:59;21.10;99.90
8988;DHT22;4529;51.360;12.474;2022-08-19T06:24:04;21.20;99.90
8988;DHT22;4529;51.360;12.474;2022-08-19T06:29:07;21.10;99.90
8988;DHT22;4529;51.360;12.474;2022-08-19T06:34:10;21.20;99.90
8988;DHT22;4529;51.360;12.474;2022-08-19T06:39:17;21.20;99.90
8988;DHT22;4529;51.360;12.474;2022-08-19T06:44:20;21.20;99.90
8988;DHT22;4529;51.360;12.474;2022-08-19T06:49:23;21.10;99.90
8988;DHT22;4529;51.360;12.474;2022-08-19T06:54:27;21.10;99.90
8988;DHT22;4529;51.360;12.474;2022-08-19T06:59:31;21.10;99.90
8988;DHT22;4529;51.360;12.474;2022-08-19T07:04:34;21.10;99.90
8988;DHT22;4529;51.360;12.474;2022-08-19T07:09:38;21.00;99.90
8988;DHT22;4529;51.360;12.474;2022-08-19T07:14:41;21.10;99.90
8988;DHT22;4529;51.360;12.474;2022-08-19T07:19:44;20.90;99.90
8988;DHT22;4529;51.360;12.474;2022-08-19T07:24:48;21.00;99.90
8988;DHT22;4529;51.360;12.474;2022-08-19T07:29:52;20.90;99.90
8988;DHT22;4529;51.360;12.474;2022-08-19T07:34:56;20.90;99.90
8988;DHT22;4529;51.360;12.474;2022-08-19T07:40:00;20.80;99.90
8988;DHT22;4529;51.360;12.474;2022-08-19T07:45:05;20.80;99.90
8988;DHT22;4529;51.360;12.474;2022-08-19T07:50:08;20.80;99.90
8988;DHT22;4529;51.360;12.474;2022-08-19T07:55:11;20.80;99.90
8988;DHT22;4529;51.360;12.474;2022-08-19T08:00:15;20.80;99.90
8988;DHT22;4529;51.360;12.474;2022-08-19T08:05:18;20.80;99.90
8988;DHT22;4529;51.360;12.474;2022-08-19T08:10:22;20.70;99.90
8988;DHT22;4529;51.360;12.474;2022-08-19T08:15:26;20.80;99.90
8988;DHT22;4529;51.360;12.474;2022-08-19T08:20:30;20.80;99.90
8988;DHT22;4529;51.360;12.474;2022-08-19T08:25:35;20.80;99.90
8988;DHT22;4529;51.360;12.474;2022-08-19T08:30:39;21.00;99.90
8988;DHT22;4529;51.360;12.474;2022-08-19T08:35:42;20.90;99.90
8988;DHT22;4529;51.360;12.474;2022-08-19T08:40:48;21.00;99.90
8988;DHT22;4529;51.360;12.474;2022-08-19T08:46:07;21.00;99.90
8988;DHT22;4529;51.360;12.474;2022-08-19T08:51:32;21.00;99.90
8988;DHT22;4529;51.360;12.474;2022-08-19T08:56:17;21.10;99.90
8988;DHT22;4529;51.360;12.474;2022-08-19T09:01:22;21.00;99.90
8988;DHT22;4529;51.360;12.474;2022-08-19T09:07:04;21.00;99.90
8988;DHT22;4529;51.360;12.474;2022-08-19T09:12:36;21.00;99.90
8988;DHT22;4529;51.360;12.474;2022-08-19T09:17:37;21.10;99.90
8988;DHT22;4529;51.360;12.474;2022-08-19T09:22:41;21.10;99.90
8988;DHT22;4529;51.360;12.474;2022-08-19T09:27:44;21.20;99.90
8988;DHT22;4529;51.360;12.474;2022-08-19T09:32:48;21.20;99.90
8988;DHT22;4529;51.360;12.474;2022-08-19T09:37:52;21.10;99.90
8988;DHT22;4529;51.360;12.474;2022-08-19T09:42:56;21.10;99.90
8988;DHT22;4529;51.360;12.474;2022-08-19T09:48:00;21.20;99.90
8988;DHT22;4529;51.360;12.474;2022-08-19T09:53:04;21.40;99.90
8988;DHT22;4529;51.360;12.474;2022-08-19T09:58:09;21.50;99.90
8988;DHT22;4529;51.360;12.474;2022-08-19T10:03:13;21.40;99.90
8988;DHT22;4529;51.360;12.474;2022-08-19T10:08:21;21.50;99.90
8988;DHT22;4529;51.360;12.474;2022-08-19T10:13:23;21.50;99.90
8988;DHT22;4529;51.360;12.474;2022-08-19T10:18:26;21.70;99.90
8988;DHT22;4529;51.360;12.474;2022-08-19T10:23:30;21.70;99.90
8988;DHT22;4529;51.360;12.474;2022-08-19T10:28:34;21.80;99.90
8988;DHT22;4529;51.360;12.474;2022-08-19T10:33:37;21.80;99.90
8988;DHT22;4529;51.360;12.474;2022-08-19T10:38:41;21.80;99.90
8988;DHT22;4529;51.360;12.474;2022-08-19T10:43:46;21.90;99.90
8988;DHT22;4529;51.360;12.474;2022-08-19T10:48:50;21.90;99.90
8988;DHT22;4529;51.360;12.474;2022-08-19T10:53:54;21.80;99.90
8988;DHT22;4529;51.360;12.474;2022-08-19T10:58:58;21.80;99.90
8988;DHT22;4529;51.360;12.474;2022-08-19T11:04:02;21.90;99.90
8988;DHT22;4529;51.360;12.474;2022-08-19T11:09:06;21.90;99.90
8988;DHT22;4529;51.360;12.474;2022-08-19T11:14:10;22.00;99.90
8988;DHT22;4529;51.360;12.474;2022-08-19T11:19:13;22.00;99.90
8988;DHT22;4529;51.360;12.474;2022-08-19T11:24:17;22.10;99.90
8988;DHT22;4529;51.360;12.474;2022-08-19T11:29:20;22.00;99.90
8988;DHT22;4529;51.360;12.474;2022-08-19T11:34:24;22.00;99.90
8988;DHT22;4529;51.360;12.474;2022-08-19T11:39:27;22.00;99.90
8988;DHT22;4529;51.360;12.474;2022-08-19T11:44:30;22.10;99.90
8988;DHT22;4529;51.360;12.474;2022-08-19T11:49:35;22.20;99.90
8988;DHT22;4529;51.360;12.474;2022-08-19T11:54:38;22.20;99.90
8988;DHT22;4529;51.360;12.474;2022-08-19T11:59:47;22.20;99.90
8988;DHT22;4529;51.360;12.474;2022-08-19T12:04:46;22.20;99.90
8988;DHT22;4529;51.360;12.474;2022-08-19T12:09:50;22.50;99.90
8988;DHT22;4529;51.360;12.474;2022-08-19T12:14:53;22.50;99.90
8988;DHT22;4529;51.360;12.474;2022-08-19T12:19:57;22.70;99.90
8988;DHT22;4529;51.360;12.474;2022-08-19T12:25:01;22.70;99.90
8988;DHT22;4529;51.360;12.474;2022-08-19T12:30:06;23.20;99.90
8988;DHT22;4529;51.360;12.474;2022-08-19T12:35:09;23.20;99.90
8988;DHT22;4529;51.360;12.474;2022-08-19T12:40:13;23.50;99.90
8988;DHT22;4529;51.360;12.474;2022-08-19T12:45:16;23.60;99.90
8988;DHT22;4529;51.360;12.474;2022-08-19T12:50:19;23.80;99.90
8988;DHT22;4529;51.360;12.474;2022-08-19T12:55:23;23.70;99.90
8988;DHT22;4529;51.360;12.474;2022-08-19T13:00:27;23.80;99.90
8988;DHT22;4529;51.360;12.474;2022-08-19T13:05:34;23.70;99.90
8988;DHT22;4529;51.360;12.474;2022-08-19T13:10:38;23.70;99.90
8988;DHT22;4529;51.360;12.474;2022-08-19T13:15:42;23.80;99.90
8988;DHT22;4529;51.360;12.474;2022-08-19T13:20:46;23.70;99.90
8988;DHT22;4529;51.360;12.474;2022-08-19T13:26:00;23.50;99.90
8988;DHT22;4529;51.360;12.474;2022-08-19T13:31:03;23.50;99.90
8988;DHT22;4529;51.360;12.474;2022-08-19T13:36:06;23.30;99.90
8988;DHT22;4529;51.360;12.474;2022-08-19T13:41:10;23.20;99.90
8988;DHT22;4529;51.360;12.474;2022-08-19T13:46:13;23.00;99.90
8988;DHT22;4529;51.360;12.474;2022-08-19T13:51:17;22.90;99.90
8988;DHT22;4529;51.360;12.474;2022-08-19T13:56:21;22.80;99.90
8988;DHT22;4529;51.360;12.474;2022-08-19T14:01:25;22.80;99.90
8988;DHT22;4529;51.360;12.474;2022-08-19T14:06:29;22.80;99.90
8988;DHT22;4529;51.360;12.474;2022-08-19T14:11:33;23.00;99.90
8988;DHT22;4529;51.360;12.474;2022-08-19T14:16:37;23.00;99.90
8988;DHT22;4529;51.360;12.474;2022-08-19T14:21:40;22.90;99.90
8988;DHT22;4529;51.360;12.474;2022-08-19T14:26:44;23.00;99.90
8988;DHT22;4529;51.360;12.474;2022-08-19T14:31:47;23.00;99.90
8988;DHT22;4529;51.360;12.474;2022-08-19T14:36:51;23.10;99.90
8988;DHT22;4529;51.360;12.474;2022-08-19T14:41:54;23.10;99.90
8988;DHT22;4529;51.360;12.474;2022-08-19T14:46:57;23.10;99.90
8988;DHT22;4529;51.360;12.474;2022-08-19T14:52:01;23.10;99.90
8988;DHT22;4529;51.360;12.474;2022-08-19T14:57:04;23.10;99.90
8988;DHT22;4529;51.360;12.474;2022-08-19T15:02:09;23.20;99.90
8988;DHT22;4529;51.360;12.474;2022-08-19T15:07:12;23.20;99.90
8988;DHT22;4529;51.360;12.474;2022-08-19T15:12:16;23.20;99.90
8988;DHT22;4529;51.360;12.474;2022-08-19T15:17:19;23.30;99.90
8988;DHT22;4529;51.360;12.474;2022-08-19T15:22:22;23.30;99.90
8988;DHT22;4529;51.360;12.474;2022-08-19T15:27:27;23.20;99.90
8988;DHT22;4529;51.360;12.474;2022-08-19T15:32:31;23.10;99.90
8988;DHT22;4529;51.360;12.474;2022-08-19T15:37:35;23.10;99.90
8988;DHT22;4529;51.360;12.474;2022-08-19T15:42:39;23.00;99.90
8988;DHT22;4529;51.360;12.474;2022-08-19T15:47:43;23.00;99.90
8988;DHT22;4529;51.360;12.474;2022-08-19T15:52:47;22.90;99.90
8988;DHT22;4529;51.360;12.474;2022-08-19T15:57:50;22.90;99.90
8988;DHT22;4529;51.360;12.474;2022-08-19T16:02:53;23.20;99.90
8988;DHT22;4529;51.360;12.474;2022-08-19T16:07:57;23.20;99.90
8988;DHT22;4529;51.360;12.474;2022-08-19T16:13:00;23.20;99.90
8988;DHT22;4529;51.360;12.474;2022-08-19T16:18:04;23.20;99.90
8988;DHT22;4529;51.360;12.474;2022-08-19T16:23:07;23.20;99.90
8988;DHT22;4529;51.360;12.474;2022-08-19T16:28:11;23.30;99.90
8988;DHT22;4529;51.360;12.474;2022-08-19T16:33:14;23.20;99.90
8988;DHT22;4529;51.360;12.474;2022-08-19T16:38:18;22.90;99.90
8988;DHT22;4529;51.360;12.474;2022-08-19T16:43:22;22.80;99.90
8988;DHT22;4529;51.360;12.474;2022-08-19T16:48:27;22.70;99.90
8988;DHT22;4529;51.360;12.474;2022-08-19T16:53:29;22.60;99.90
8988;DHT22;4529;51.360;12.474;2022-08-19T16:58:34;22.50;99.90
8988;DHT22;4529;51.360;12.474;2022-08-19T17:03:38;22.50;99.90
8988;DHT22;4529;51.360;12.474;2022-08-19T17:08:42;22.50;99.90
8988;DHT22;4529;51.360;12.474;2022-08-19T17:13:46;22.40;99.90
8988;DHT22;4529;51.360;12.474;2022-08-19T17:18:51;22.30;99.90
8988;DHT22;4529;51.360;12.474;2022-08-19T17:23:55;22.30;99.90
8988;DHT22;4529;51.360;12.474;2022-08-19T17:28:58;22.30;99.90
8988;DHT22;4529;51.360;12.474;2022-08-19T17:34:03;22.20;99.90
8988;DHT22;4529;51.360;12.474;2022-08-19T17:39:06;22.20;99.90
8988;DHT22;4529;51.360;12.474;2022-08-19T17:44:09;22.20;99.90
8988;DHT22;4529;51.360;12.474;2022-08-19T17:49:13;22.10;99.90
8988;DHT22;4529;51.360;12.474;2022-08-19T17:54:17;22.10;99.90
8988;DHT22;4529;51.360;12.474;2022-08-19T17:59:21;22.00;99.90
8988;DHT22;4529;51.360;12.474;2022-08-19T18:04:24;21.90;99.90
8988;DHT22;4529;51.360;12.474;2022-08-19T18:09:29;21.90;99.90
8988;DHT22;4529;51.360;12.474;2022-08-19T18:14:33;21.80;99.90
8988;DHT22;4529;51.360;12.474;2022-08-19T18:19:37;21.70;99.90
8988;DHT22;4529;51.360;12.474;2022-08-19T18:24:40;21.60;99.90
8988;DHT22;4529;51.360;12.474;2022-08-19T18:29:44;21.60;99.90
8988;DHT22;4529;51.360;12.474;2022-08-19T18:34:49;21.40;99.90
8988;DHT22;4529;51.360;12.474;2022-08-19T18:39:53;21.40;99.90
8988;DHT22;4529;51.360;12.474;2022-08-19T18:44:57;21.20;99.90
8988;DHT22;4529;51.360;12.474;2022-08-19T18:50:01;21.30;99.90
8988;DHT22;4529;51.360;12.474;2022-08-19T18:55:05;21.20;99.90
8988;DHT22;4529;51.360;12.474;2022-08-19T19:00:09;21.20;99.90
8988;DHT22;4529;51.360;12.474;2022-08-19T19:05:13;21.10;99.90
8988;DHT22;4529;51.360;12.474;2022-08-19T19:10:17;21.10;99.90
8988;DHT22;4529;51.360;12.474;2022-08-19T19:15:21;21.10;99.90
8988;DHT22;4529;51.360;12.474;2022-08-19T19:20:25;21.10;99.90
8988;DHT22;4529;51.360;12.474;2022-08-19T19:25:28;21.10;99.90
8988;DHT22;4529;51.360;12.474;2022-08-19T19:30:32;21.10;99.90
8988;DHT22;4529;51.360;12.474;2022-08-19T19:35:35;21.10;99.90
8988;DHT22;4529;51.360;12.474;2022-08-19T19:40:39;21.10;99.90
8988;DHT22;4529;51.360;12.474;2022-08-19T19:45:42;21.10;99.90
8988;DHT22;4529;51.360;12.474;2022-08-19T19:50:46;21.10;99.90
8988;DHT22;4529;51.360;12.474;2022-08-19T19:55:49;21.00;99.90
8988;DHT22;4529;51.360;12.474;2022-08-19T20:00:53;21.00;99.90
8988;DHT22;4529;51.360;12.474;2022-08-19T20:05:56;21.00;99.90
8988;DHT22;4529;51.360;12.474;2022-08-19T20:11:03;21.00;99.90
8988;DHT22;4529;51.360;12.474;2022-08-19T20:16:06;20.90;99.90
8988;DHT22;4529;51.360;12.474;2022-08-19T20:21:10;20.80;99.90
8988;DHT22;4529;51.360;12.474;2022-08-19T20:26:14;20.90;99.90
8988;DHT22;4529;51.360;12.474;2022-08-19T20:31:19;20.90;99.90
8988;DHT22;4529;51.360;12.474;2022-08-19T20:36:22;20.90;99.90
8988;DHT22;4529;51.360;12.474;2022-08-19T20:41:27;20.90;99.90
8988;DHT22;4529;51.360;12.474;2022-08-19T20:46:30;20.90;99.90
8988;DHT22;4529;51.360;12.474;2022-08-19T20:51:34;20.90;99.90
8988;DHT22;4529;51.360;12.474;2022-08-19T20:56:37;20.90;99.90
8988;DHT22;4529;51.360;12.474;2022-08-19T21:01:42;20.90;99.90
8988;DHT22;4529;51.360;12.474;2022-08-19T21:06:47;21.00;99.90
8988;DHT22;4529;51.360;12.474;2022-08-19T21:11:50;21.00;99.90
8988;DHT22;4529;51.360;12.474;2022-08-19T21:16:53;21.00;99.90
8988;DHT22;4529;51.360;12.474;2022-08-19T21:21:56;21.00;99.90
8988;DHT22;4529;51.360;12.474;2022-08-19T21:27:00;21.00;99.90
8988;DHT22;4529;51.360;12.474;2022-08-19T21:32:04;21.00;99.90
8988;DHT22;4529;51.360;12.474;2022-08-19T21:37:07;21.00;99.90
8988;DHT22;4529;51.360;12.474;2022-08-19T21:42:11;21.10;99.90
8988;DHT22;4529;51.360;12.474;2022-08-19T21:47:14;21.10;99.90
8988;DHT22;4529;51.360;12.474;2022-08-19T21:52:24;21.20;99.90
8988;DHT22;4529;51.360;12.474;2022-08-19T21:57:27;21.10;99.90
8988;DHT22;4529;51.360;12.474;2022-08-19T22:02:30;21.20;99.90
8988;DHT22;4529;51.360;12.474;2022-08-19T22:07:34;21.10;99.90
8988;DHT22;4529;51.360;12.474;2022-08-19T22:12:37;21.10;99.90
8988;DHT22;4529;51.360;12.474;2022-08-19T22:17:41;21.00;99.90
8988;DHT22;4529;51.360;12.474;2022-08-19T22:22:52;20.90;99.90
8988;DHT22;4529;51.360;12.474;2022-08-19T22:27:54;20.90;99.90
8988;DHT22;4529;51.360;12.474;2022-08-19T22:32:57;21.00;99.90
8988;DHT22;4529;51.360;12.474;2022-08-19T22:38:01;20.80;99.90
8988;DHT22;4529;51.360;12.474;2022-08-19T22:43:07;20.70;99.90
8988;DHT22;4529;51.360;12.474;2022-08-19T22:48:08;20.60;99.90
8988;DHT22;4529;51.360;12.474;2022-08-19T22:53:11;20.50;99.90
8988;DHT22;4529;51.360;12.474;2022-08-19T22:58:15;20.50;99.90
8988;DHT22;4529;51.360;12.474;2022-08-19T23:03:19;20.40;99.90
8988;DHT22;4529;51.360;12.474;2022-08-19T23:08:23;20.40;99.90
8988;DHT22;4529;51.360;12.474;2022-08-19T23:13:27;20.40;99.90
8988;DHT22;4529;51.360;12.474;2022-08-19T23:18:31;20.50;99.90
8988;DHT22;4529;51.360;12.474;2022-08-19T23:23:35;20.50;99.90
8988;DHT22;4529;51.360;12.474;2022-08-19T23:28:37;20.40;99.90
8988;DHT22;4529;51.360;12.474;2022-08-19T23:33:41;20.30;99.90
8988;DHT22;4529;51.360;12.474;2022-08-19T23:38:46;20.30;99.90
8988;DHT22;4529;51.360;12.474;2022-08-19T23:43:49;20.30;99.90
8988;DHT22;4529;51.360;12.474;2022-08-19T23:48:53;20.30;99.90
8988;DHT22;4529;51.360;12.474;2022-08-19T23:53:57;20.30;99.90
8988;DHT22;4529;51.360;12.474;2022-08-19T23:59:00;20.30;99.90
